sensor_id;sensor_type;location;lat;lon;timestamp;P1;durP1;ratioP1;P2;durP2;ratioP2
19519;SDS011;9904;52.246;20.898;2023-03-11T00:02:13;41.20;;;17.63;;
19519;SDS011;9904;52.246;20.898;2023-03-11T00:04:41;36.40;;;16.73;;
19519;SDS011;9904;52.246;20.898;2023-03-11T00:07:08;37.60;;;17.03;;
19519;SDS011;9904;52.246;20.898;2023-03-11T00:09:35;40.17;;;17.33;;
19519;SDS011;9904;52.246;20.898;2023-03-11T00:12:02;40.60;;;16.10;;
19519;SDS011;9904;52.246;20.898;2023-03-11T00:14:29;38.73;;;16.40;;
19519;SDS011;9904;52.246;20.898;2023-03-11T00:16:56;37.40;;;16.03;;
19519;SDS011;9904;52.246;20.898;2023-03-11T00:19:22;33.17;;;15.33;;
19519;SDS011;9904;52.246;20.898;2023-03-11T00:21:49;36.87;;;15.73;;
19519;SDS011;9904;52.246;20.898;2023-03-11T00:24:15;37.67;;;15.67;;
19519;SDS011;9904;52.246;20.898;2023-03-11T00:26:42;32.97;;;14.80;;
19519;SDS011;9904;52.246;20.898;2023-03-11T00:29:08;37.33;;;14.17;;
19519;SDS011;9904;52.246;20.898;2023-03-11T00:31:35;28.40;;;13.63;;
19519;SDS011;9904;52.246;20.898;2023-03-11T00:34:01;29.70;;;14.20;;
19519;SDS011;9904;52.246;20.898;2023-03-11T00:36:29;27.87;;;13.40;;
19519;SDS011;9904;52.246;20.898;2023-03-11T00:38:57;32.10;;;13.97;;
19519;SDS011;9904;52.246;20.898;2023-03-11T00:41:23;28.57;;;14.13;;
19519;SDS011;9904;52.246;20.898;2023-03-11T00:43:50;32.90;;;13.67;;
19519;SDS011;9904;52.246;20.898;2023-03-11T00:46:16;29.50;;;14.03;;
19519;SDS011;9904;52.246;20.898;2023-03-11T00:48:43;30.90;;;14.37;;
19519;SDS011;9904;52.246;20.898;2023-03-11T00:51:13;38.03;;;15.23;;
19519;SDS011;9904;52.246;20.898;2023-03-11T00:53:41;31.13;;;13.63;;
19519;SDS011;9904;52.246;20.898;2023-03-11T00:56:08;33.73;;;14.70;;
19519;SDS011;9904;52.246;20.898;2023-03-11T00:58:38;31.57;;;14.47;;
19519;SDS011;9904;52.246;20.898;2023-03-11T01:01:06;32.93;;;14.73;;
19519;SDS011;9904;52.246;20.898;2023-03-11T01:03:41;32.43;;;14.87;;
19519;SDS011;9904;52.246;20.898;2023-03-11T01:06:08;38.60;;;14.53;;
19519;SDS011;9904;52.246;20.898;2023-03-11T01:08:34;36.03;;;14.07;;
19519;SDS011;9904;52.246;20.898;2023-03-11T01:11:01;31.00;;;13.90;;
19519;SDS011;9904;52.246;20.898;2023-03-11T01:13:29;30.00;;;13.50;;
19519;SDS011;9904;52.246;20.898;2023-03-11T01:15:56;33.37;;;15.33;;
19519;SDS011;9904;52.246;20.898;2023-03-11T01:18:23;29.30;;;13.80;;
19519;SDS011;9904;52.246;20.898;2023-03-11T01:20:50;29.13;;;14.47;;
19519;SDS011;9904;52.246;20.898;2023-03-11T01:23:18;31.57;;;13.70;;
19519;SDS011;9904;52.246;20.898;2023-03-11T01:25:45;32.20;;;14.40;;
19519;SDS011;9904;52.246;20.898;2023-03-11T01:28:11;36.13;;;14.70;;
19519;SDS011;9904;52.246;20.898;2023-03-11T01:30:39;30.23;;;14.10;;
19519;SDS011;9904;52.246;20.898;2023-03-11T01:33:07;33.00;;;14.13;;
19519;SDS011;9904;52.246;20.898;2023-03-11T01:35:40;34.53;;;14.73;;
19519;SDS011;9904;52.246;20.898;2023-03-11T01:38:07;34.07;;;14.10;;
19519;SDS011;9904;52.246;20.898;2023-03-11T01:40:35;32.23;;;14.27;;
19519;SDS011;9904;52.246;20.898;2023-03-11T01:46:16;29.87;;;13.60;;
19519;SDS011;9904;52.246;20.898;2023-03-11T01:48:44;26.07;;;12.50;;
19519;SDS011;9904;52.246;20.898;2023-03-11T01:51:20;32.87;;;13.20;;
19519;SDS011;9904;52.246;20.898;2023-03-11T01:53:48;30.57;;;12.93;;
19519;SDS011;9904;52.246;20.898;2023-03-11T01:56:15;28.23;;;12.77;;
19519;SDS011;9904;52.246;20.898;2023-03-11T01:58:42;28.93;;;12.73;;
19519;SDS011;9904;52.246;20.898;2023-03-11T02:01:11;33.73;;;13.27;;
19519;SDS011;9904;52.246;20.898;2023-03-11T02:03:39;28.10;;;11.90;;
19519;SDS011;9904;52.246;20.898;2023-03-11T02:06:11;27.60;;;11.77;;
19519;SDS011;9904;52.246;20.898;2023-03-11T02:08:41;27.43;;;11.40;;
19519;SDS011;9904;52.246;20.898;2023-03-11T02:11:09;22.70;;;11.03;;
19519;SDS011;9904;52.246;20.898;2023-03-11T02:13:37;32.00;;;12.10;;
19519;SDS011;9904;52.246;20.898;2023-03-11T02:16:05;23.50;;;11.53;;
19519;SDS011;9904;52.246;20.898;2023-03-11T02:18:32;25.90;;;10.97;;
19519;SDS011;9904;52.246;20.898;2023-03-11T02:29:21;24.50;;;9.50;;
19519;SDS011;9904;52.246;20.898;2023-03-11T02:31:48;21.90;;;10.87;;
19519;SDS011;9904;52.246;20.898;2023-03-11T02:34:17;23.53;;;10.53;;
19519;SDS011;9904;52.246;20.898;2023-03-11T02:36:48;24.00;;;10.40;;
19519;SDS011;9904;52.246;20.898;2023-03-11T02:39:14;23.73;;;9.70;;
19519;SDS011;9904;52.246;20.898;2023-03-11T02:41:43;24.13;;;10.10;;
19519;SDS011;9904;52.246;20.898;2023-03-11T02:44:11;19.90;;;10.10;;
19519;SDS011;9904;52.246;20.898;2023-03-11T02:46:40;21.77;;;9.53;;
19519;SDS011;9904;52.246;20.898;2023-03-11T02:49:07;25.30;;;10.00;;
19519;SDS011;9904;52.246;20.898;2023-03-11T02:51:34;22.23;;;10.07;;
19519;SDS011;9904;52.246;20.898;2023-03-11T02:54:03;22.40;;;9.53;;
19519;SDS011;9904;52.246;20.898;2023-03-11T02:56:30;22.40;;;9.80;;
19519;SDS011;9904;52.246;20.898;2023-03-11T02:58:57;20.40;;;10.00;;
19519;SDS011;9904;52.246;20.898;2023-03-11T03:01:23;19.83;;;9.90;;
19519;SDS011;9904;52.246;20.898;2023-03-11T03:03:50;23.20;;;8.97;;
19519;SDS011;9904;52.246;20.898;2023-03-11T03:06:16;21.00;;;9.23;;
19519;SDS011;9904;52.246;20.898;2023-03-11T03:08:43;19.67;;;9.00;;
19519;SDS011;9904;52.246;20.898;2023-03-11T03:11:10;17.00;;;8.03;;
19519;SDS011;9904;52.246;20.898;2023-03-11T03:13:36;21.37;;;9.50;;
19519;SDS011;9904;52.246;20.898;2023-03-11T03:16:03;19.43;;;8.37;;
19519;SDS011;9904;52.246;20.898;2023-03-11T03:18:30;17.40;;;7.90;;
19519;SDS011;9904;52.246;20.898;2023-03-11T03:20:56;15.93;;;7.73;;
19519;SDS011;9904;52.246;20.898;2023-03-11T03:23:23;16.70;;;7.57;;
19519;SDS011;9904;52.246;20.898;2023-03-11T03:25:49;12.47;;;6.80;;
19519;SDS011;9904;52.246;20.898;2023-03-11T03:28:16;16.60;;;8.13;;
19519;SDS011;9904;52.246;20.898;2023-03-11T03:30:42;19.10;;;8.00;;
19519;SDS011;9904;52.246;20.898;2023-03-11T03:33:09;17.40;;;7.77;;
19519;SDS011;9904;52.246;20.898;2023-03-11T03:35:41;23.40;;;8.53;;
19519;SDS011;9904;52.246;20.898;2023-03-11T03:38:08;15.70;;;7.53;;
19519;SDS011;9904;52.246;20.898;2023-03-11T03:40:35;16.53;;;7.00;;
19519;SDS011;9904;52.246;20.898;2023-03-11T03:43:01;13.90;;;7.20;;
19519;SDS011;9904;52.246;20.898;2023-03-11T03:45:28;13.67;;;6.90;;
19519;SDS011;9904;52.246;20.898;2023-03-11T03:47:55;13.67;;;6.93;;
19519;SDS011;9904;52.246;20.898;2023-03-11T03:50:22;17.47;;;7.60;;
19519;SDS011;9904;52.246;20.898;2023-03-11T03:52:48;14.47;;;6.87;;
19519;SDS011;9904;52.246;20.898;2023-03-11T03:55:15;19.83;;;7.60;;
19519;SDS011;9904;52.246;20.898;2023-03-11T03:57:41;16.80;;;7.43;;
19519;SDS011;9904;52.246;20.898;2023-03-11T04:00:08;15.97;;;7.30;;
19519;SDS011;9904;52.246;20.898;2023-03-11T04:02:35;14.33;;;6.93;;
19519;SDS011;9904;52.246;20.898;2023-03-11T04:05:02;14.03;;;6.80;;
19519;SDS011;9904;52.246;20.898;2023-03-11T04:07:29;13.63;;;7.10;;
19519;SDS011;9904;52.246;20.898;2023-03-11T04:09:55;17.73;;;7.47;;
19519;SDS011;9904;52.246;20.898;2023-03-11T04:12:22;14.10;;;6.87;;
19519;SDS011;9904;52.246;20.898;2023-03-11T04:14:48;18.53;;;7.07;;
19519;SDS011;9904;52.246;20.898;2023-03-11T04:17:15;16.10;;;6.90;;
19519;SDS011;9904;52.246;20.898;2023-03-11T04:19:42;15.33;;;7.03;;
19519;SDS011;9904;52.246;20.898;2023-03-11T04:22:09;17.10;;;7.83;;
19519;SDS011;9904;52.246;20.898;2023-03-11T04:24:35;17.10;;;8.10;;
19519;SDS011;9904;52.246;20.898;2023-03-11T04:27:02;15.63;;;7.57;;
19519;SDS011;9904;52.246;20.898;2023-03-11T04:29:28;16.47;;;7.70;;
19519;SDS011;9904;52.246;20.898;2023-03-11T04:31:55;19.40;;;7.97;;
19519;SDS011;9904;52.246;20.898;2023-03-11T04:34:22;19.27;;;7.67;;
19519;SDS011;9904;52.246;20.898;2023-03-11T04:36:52;15.13;;;7.80;;
19519;SDS011;9904;52.246;20.898;2023-03-11T04:39:19;16.87;;;7.50;;
19519;SDS011;9904;52.246;20.898;2023-03-11T04:41:46;18.80;;;8.20;;
19519;SDS011;9904;52.246;20.898;2023-03-11T04:44:12;15.47;;;7.30;;
19519;SDS011;9904;52.246;20.898;2023-03-11T04:46:39;18.07;;;7.27;;
19519;SDS011;9904;52.246;20.898;2023-03-11T04:49:06;18.13;;;8.20;;
19519;SDS011;9904;52.246;20.898;2023-03-11T04:51:33;18.50;;;7.70;;
19519;SDS011;9904;52.246;20.898;2023-03-11T04:53:59;15.97;;;7.40;;
19519;SDS011;9904;52.246;20.898;2023-03-11T04:56:26;14.70;;;6.90;;
19519;SDS011;9904;52.246;20.898;2023-03-11T04:58:52;13.20;;;7.03;;
19519;SDS011;9904;52.246;20.898;2023-03-11T05:01:19;15.27;;;7.17;;
19519;SDS011;9904;52.246;20.898;2023-03-11T05:03:45;17.87;;;6.90;;
19519;SDS011;9904;52.246;20.898;2023-03-11T05:06:12;16.60;;;7.27;;
19519;SDS011;9904;52.246;20.898;2023-03-11T05:08:39;15.87;;;7.13;;
19519;SDS011;9904;52.246;20.898;2023-03-11T05:11:05;18.63;;;7.83;;
19519;SDS011;9904;52.246;20.898;2023-03-11T05:13:32;17.87;;;7.47;;
19519;SDS011;9904;52.246;20.898;2023-03-11T05:15:59;23.13;;;7.83;;
19519;SDS011;9904;52.246;20.898;2023-03-11T05:18:25;20.13;;;7.67;;
19519;SDS011;9904;52.246;20.898;2023-03-11T05:20:52;16.43;;;6.47;;
19519;SDS011;9904;52.246;20.898;2023-03-11T05:23:18;17.57;;;7.33;;
19519;SDS011;9904;52.246;20.898;2023-03-11T05:25:45;17.33;;;6.90;;
19519;SDS011;9904;52.246;20.898;2023-03-11T05:28:11;16.20;;;7.00;;
19519;SDS011;9904;52.246;20.898;2023-03-11T05:30:38;15.03;;;6.93;;
19519;SDS011;9904;52.246;20.898;2023-03-11T05:33:04;15.80;;;7.03;;
19519;SDS011;9904;52.246;20.898;2023-03-11T05:35:31;13.17;;;6.20;;
19519;SDS011;9904;52.246;20.898;2023-03-11T05:37:58;14.83;;;5.70;;
19519;SDS011;9904;52.246;20.898;2023-03-11T05:40:24;15.63;;;5.50;;
19519;SDS011;9904;52.246;20.898;2023-03-11T05:42:50;11.57;;;4.80;;
19519;SDS011;9904;52.246;20.898;2023-03-11T05:45:17;10.40;;;5.03;;
19519;SDS011;9904;52.246;20.898;2023-03-11T05:47:44;12.63;;;5.07;;
19519;SDS011;9904;52.246;20.898;2023-03-11T05:50:10;11.73;;;4.73;;
19519;SDS011;9904;52.246;20.898;2023-03-11T05:52:38;13.43;;;4.50;;
19519;SDS011;9904;52.246;20.898;2023-03-11T05:55:05;11.63;;;5.00;;
19519;SDS011;9904;52.246;20.898;2023-03-11T05:57:32;8.50;;;4.17;;
19519;SDS011;9904;52.246;20.898;2023-03-11T05:59:58;12.83;;;5.20;;
19519;SDS011;9904;52.246;20.898;2023-03-11T06:02:25;11.67;;;4.90;;
19519;SDS011;9904;52.246;20.898;2023-03-11T06:04:52;15.13;;;4.40;;
19519;SDS011;9904;52.246;20.898;2023-03-11T06:07:19;15.83;;;5.00;;
19519;SDS011;9904;52.246;20.898;2023-03-11T06:09:48;15.07;;;5.20;;
19519;SDS011;9904;52.246;20.898;2023-03-11T06:12:15;13.07;;;5.40;;
19519;SDS011;9904;52.246;20.898;2023-03-11T06:14:42;11.40;;;5.33;;
19519;SDS011;9904;52.246;20.898;2023-03-11T06:17:08;12.70;;;6.13;;
19519;SDS011;9904;52.246;20.898;2023-03-11T06:19:35;12.87;;;5.87;;
19519;SDS011;9904;52.246;20.898;2023-03-11T06:22:01;13.83;;;5.67;;
19519;SDS011;9904;52.246;20.898;2023-03-11T06:24:28;14.17;;;6.17;;
19519;SDS011;9904;52.246;20.898;2023-03-11T06:26:54;19.77;;;6.73;;
19519;SDS011;9904;52.246;20.898;2023-03-11T06:29:21;15.03;;;6.07;;
19519;SDS011;9904;52.246;20.898;2023-03-11T06:31:49;12.27;;;5.70;;
19519;SDS011;9904;52.246;20.898;2023-03-11T06:34:16;16.67;;;6.53;;
19519;SDS011;9904;52.246;20.898;2023-03-11T06:36:43;15.77;;;6.70;;
19519;SDS011;9904;52.246;20.898;2023-03-11T06:39:11;17.00;;;7.37;;
19519;SDS011;9904;52.246;20.898;2023-03-11T06:41:40;17.50;;;6.87;;
19519;SDS011;9904;52.246;20.898;2023-03-11T06:44:10;13.63;;;6.73;;
19519;SDS011;9904;52.246;20.898;2023-03-11T06:46:36;15.97;;;7.17;;
19519;SDS011;9904;52.246;20.898;2023-03-11T06:49:03;16.87;;;6.90;;
19519;SDS011;9904;52.246;20.898;2023-03-11T06:51:29;12.77;;;6.23;;
19519;SDS011;9904;52.246;20.898;2023-03-11T06:53:56;12.97;;;6.33;;
19519;SDS011;9904;52.246;20.898;2023-03-11T06:56:23;15.33;;;6.23;;
19519;SDS011;9904;52.246;20.898;2023-03-11T06:58:50;14.17;;;6.87;;
19519;SDS011;9904;52.246;20.898;2023-03-11T07:01:20;12.63;;;6.90;;
19519;SDS011;9904;52.246;20.898;2023-03-11T07:03:48;12.37;;;6.97;;
19519;SDS011;9904;52.246;20.898;2023-03-11T07:06:17;16.27;;;7.80;;
19519;SDS011;9904;52.246;20.898;2023-03-11T07:08:48;13.10;;;7.23;;
19519;SDS011;9904;52.246;20.898;2023-03-11T07:11:17;15.23;;;7.40;;
19519;SDS011;9904;52.246;20.898;2023-03-11T07:13:45;14.77;;;7.63;;
19519;SDS011;9904;52.246;20.898;2023-03-11T07:16:13;13.00;;;7.10;;
19519;SDS011;9904;52.246;20.898;2023-03-11T07:18:46;15.93;;;7.77;;
19519;SDS011;9904;52.246;20.898;2023-03-11T07:21:14;16.50;;;8.30;;
19519;SDS011;9904;52.246;20.898;2023-03-11T07:23:43;15.03;;;7.73;;
19519;SDS011;9904;52.246;20.898;2023-03-11T07:26:10;13.77;;;7.60;;
19519;SDS011;9904;52.246;20.898;2023-03-11T07:28:38;16.43;;;7.80;;
19519;SDS011;9904;52.246;20.898;2023-03-11T07:31:06;17.30;;;8.03;;
19519;SDS011;9904;52.246;20.898;2023-03-11T07:33:36;17.63;;;8.43;;
19519;SDS011;9904;52.246;20.898;2023-03-11T07:36:04;14.87;;;8.97;;
19519;SDS011;9904;52.246;20.898;2023-03-11T07:38:32;14.07;;;8.27;;
19519;SDS011;9904;52.246;20.898;2023-03-11T07:40:58;16.33;;;9.30;;
19519;SDS011;9904;52.246;20.898;2023-03-11T07:43:25;18.60;;;10.60;;
19519;SDS011;9904;52.246;20.898;2023-03-11T07:46:00;19.20;;;10.37;;
19519;SDS011;9904;52.246;20.898;2023-03-11T07:48:31;17.67;;;11.07;;
19519;SDS011;9904;52.246;20.898;2023-03-11T07:50:59;16.30;;;10.43;;
19519;SDS011;9904;52.246;20.898;2023-03-11T07:53:27;20.80;;;11.40;;
19519;SDS011;9904;52.246;20.898;2023-03-11T07:55:56;20.83;;;11.83;;
19519;SDS011;9904;52.246;20.898;2023-03-11T07:58:24;16.83;;;11.13;;
19519;SDS011;9904;52.246;20.898;2023-03-11T08:00:51;16.47;;;10.60;;
19519;SDS011;9904;52.246;20.898;2023-03-11T08:03:17;16.00;;;10.83;;
19519;SDS011;9904;52.246;20.898;2023-03-11T08:05:44;18.37;;;11.80;;
19519;SDS011;9904;52.246;20.898;2023-03-11T08:08:11;21.57;;;12.70;;
19519;SDS011;9904;52.246;20.898;2023-03-11T08:10:37;19.17;;;11.53;;
19519;SDS011;9904;52.246;20.898;2023-03-11T08:13:04;17.20;;;10.77;;
19519;SDS011;9904;52.246;20.898;2023-03-11T08:15:31;16.60;;;10.93;;
19519;SDS011;9904;52.246;20.898;2023-03-11T08:17:58;17.70;;;10.67;;
19519;SDS011;9904;52.246;20.898;2023-03-11T08:20:24;17.20;;;10.70;;
19519;SDS011;9904;52.246;20.898;2023-03-11T08:22:51;17.70;;;11.00;;
19519;SDS011;9904;52.246;20.898;2023-03-11T08:25:23;19.47;;;11.07;;
19519;SDS011;9904;52.246;20.898;2023-03-11T08:27:50;20.83;;;11.30;;
19519;SDS011;9904;52.246;20.898;2023-03-11T08:30:17;20.57;;;12.33;;
19519;SDS011;9904;52.246;20.898;2023-03-11T08:32:44;20.37;;;11.83;;
19519;SDS011;9904;52.246;20.898;2023-03-11T08:35:11;18.87;;;13.03;;
19519;SDS011;9904;52.246;20.898;2023-03-11T08:37:37;21.17;;;12.77;;
19519;SDS011;9904;52.246;20.898;2023-03-11T08:40:04;24.53;;;14.03;;
19519;SDS011;9904;52.246;20.898;2023-03-11T08:42:31;20.83;;;13.33;;
19519;SDS011;9904;52.246;20.898;2023-03-11T08:44:58;24.00;;;14.73;;
19519;SDS011;9904;52.246;20.898;2023-03-11T08:47:24;24.37;;;13.93;;
19519;SDS011;9904;52.246;20.898;2023-03-11T08:49:51;21.77;;;14.00;;
19519;SDS011;9904;52.246;20.898;2023-03-11T08:52:17;23.50;;;14.33;;
19519;SDS011;9904;52.246;20.898;2023-03-11T08:54:44;25.40;;;15.57;;
19519;SDS011;9904;52.246;20.898;2023-03-11T08:57:11;26.97;;;15.70;;
19519;SDS011;9904;52.246;20.898;2023-03-11T08:59:37;26.37;;;15.43;;
19519;SDS011;9904;52.246;20.898;2023-03-11T09:02:04;27.30;;;16.47;;
19519;SDS011;9904;52.246;20.898;2023-03-11T09:04:30;31.33;;;17.23;;
19519;SDS011;9904;52.246;20.898;2023-03-11T09:06:57;31.53;;;16.53;;
19519;SDS011;9904;52.246;20.898;2023-03-11T09:09:24;28.50;;;16.13;;
19519;SDS011;9904;52.246;20.898;2023-03-11T09:11:50;25.67;;;15.50;;
19519;SDS011;9904;52.246;20.898;2023-03-11T09:14:17;28.57;;;16.57;;
19519;SDS011;9904;52.246;20.898;2023-03-11T09:16:44;31.73;;;16.83;;
19519;SDS011;9904;52.246;20.898;2023-03-11T09:19:10;30.50;;;14.10;;
19519;SDS011;9904;52.246;20.898;2023-03-11T09:21:37;27.97;;;14.47;;
19519;SDS011;9904;52.246;20.898;2023-03-11T09:24:04;32.07;;;15.03;;
19519;SDS011;9904;52.246;20.898;2023-03-11T09:26:32;31.63;;;15.30;;
19519;SDS011;9904;52.246;20.898;2023-03-11T09:28:58;35.77;;;17.27;;
19519;SDS011;9904;52.246;20.898;2023-03-11T09:31:25;36.83;;;17.20;;
19519;SDS011;9904;52.246;20.898;2023-03-11T09:33:51;36.07;;;17.87;;
19519;SDS011;9904;52.246;20.898;2023-03-11T09:36:20;41.63;;;17.37;;
19519;SDS011;9904;52.246;20.898;2023-03-11T09:38:47;35.57;;;16.27;;
19519;SDS011;9904;52.246;20.898;2023-03-11T09:44:27;39.37;;;17.57;;
19519;SDS011;9904;52.246;20.898;2023-03-11T09:47:10;38.90;;;18.37;;
19519;SDS011;9904;52.246;20.898;2023-03-11T09:50:01;41.90;;;17.60;;
19519;SDS011;9904;52.246;20.898;2023-03-11T09:52:39;44.23;;;19.70;;
19519;SDS011;9904;52.246;20.898;2023-03-11T09:55:20;44.77;;;20.50;;
19519;SDS011;9904;52.246;20.898;2023-03-11T09:57:50;43.87;;;19.93;;
19519;SDS011;9904;52.246;20.898;2023-03-11T10:00:18;44.23;;;19.33;;
19519;SDS011;9904;52.246;20.898;2023-03-11T10:02:46;47.93;;;20.23;;
19519;SDS011;9904;52.246;20.898;2023-03-11T10:05:14;49.23;;;19.63;;
19519;SDS011;9904;52.246;20.898;2023-03-11T10:08:01;40.70;;;16.50;;
19519;SDS011;9904;52.246;20.898;2023-03-11T10:10:32;34.07;;;15.37;;
19519;SDS011;9904;52.246;20.898;2023-03-11T10:13:03;31.90;;;13.97;;
19519;SDS011;9904;52.246;20.898;2023-03-11T10:16:01;27.10;;;12.77;;
19519;SDS011;9904;52.246;20.898;2023-03-11T10:23:49;22.13;;;11.47;;
19519;SDS011;9904;52.246;20.898;2023-03-11T10:26:24;25.10;;;11.93;;
19519;SDS011;9904;52.246;20.898;2023-03-11T10:34:44;14.97;;;7.90;;
19519;SDS011;9904;52.246;20.898;2023-03-11T10:37:31;13.90;;;7.30;;
19519;SDS011;9904;52.246;20.898;2023-03-11T10:42:57;12.43;;;7.77;;
19519;SDS011;9904;52.246;20.898;2023-03-11T10:45:26;14.67;;;8.40;;
19519;SDS011;9904;52.246;20.898;2023-03-11T10:47:55;17.33;;;9.60;;
19519;SDS011;9904;52.246;20.898;2023-03-11T10:50:23;16.47;;;9.40;;
19519;SDS011;9904;52.246;20.898;2023-03-11T10:55:56;16.47;;;9.33;;
19519;SDS011;9904;52.246;20.898;2023-03-11T10:58:27;17.67;;;10.93;;
19519;SDS011;9904;52.246;20.898;2023-03-11T11:01:03;18.77;;;10.77;;
19519;SDS011;9904;52.246;20.898;2023-03-11T11:03:37;16.13;;;10.73;;
19519;SDS011;9904;52.246;20.898;2023-03-11T11:06:17;18.60;;;10.40;;
19519;SDS011;9904;52.246;20.898;2023-03-11T11:09:05;17.37;;;10.23;;
19519;SDS011;9904;52.246;20.898;2023-03-11T11:17:25;10.67;;;7.30;;
19519;SDS011;9904;52.246;20.898;2023-03-11T11:19:55;10.07;;;6.80;;
19519;SDS011;9904;52.246;20.898;2023-03-11T11:22:23;8.90;;;5.37;;
19519;SDS011;9904;52.246;20.898;2023-03-11T11:24:51;7.37;;;4.77;;
19519;SDS011;9904;52.246;20.898;2023-03-11T11:32:34;6.67;;;3.77;;
19519;SDS011;9904;52.246;20.898;2023-03-11T11:35:06;6.07;;;3.87;;
19519;SDS011;9904;52.246;20.898;2023-03-11T11:37:45;5.57;;;4.00;;
19519;SDS011;9904;52.246;20.898;2023-03-11T11:42:43;5.80;;;3.97;;
19519;SDS011;9904;52.246;20.898;2023-03-11T11:45:16;6.20;;;4.47;;
19519;SDS011;9904;52.246;20.898;2023-03-11T11:47:51;7.87;;;5.20;;
19519;SDS011;9904;52.246;20.898;2023-03-11T11:50:40;8.07;;;5.03;;
19519;SDS011;9904;52.246;20.898;2023-03-11T11:53:16;9.60;;;5.70;;
19519;SDS011;9904;52.246;20.898;2023-03-11T11:56:00;9.97;;;6.07;;
19519;SDS011;9904;52.246;20.898;2023-03-11T11:58:26;13.23;;;6.60;;
19519;SDS011;9904;52.246;20.898;2023-03-11T12:01:00;9.90;;;6.83;;
19519;SDS011;9904;52.246;20.898;2023-03-11T12:04:02;12.03;;;6.60;;
19519;SDS011;9904;52.246;20.898;2023-03-11T12:15:40;14.67;;;7.80;;
19519;SDS011;9904;52.246;20.898;2023-03-11T12:18:13;14.67;;;8.17;;
19519;SDS011;9904;52.246;20.898;2023-03-11T12:20:46;13.33;;;7.80;;
19519;SDS011;9904;52.246;20.898;2023-03-11T12:23:16;11.27;;;7.37;;
19519;SDS011;9904;52.246;20.898;2023-03-11T12:28:19;12.13;;;7.23;;
19519;SDS011;9904;52.246;20.898;2023-03-11T12:30:55;13.67;;;6.87;;
19519;SDS011;9904;52.246;20.898;2023-03-11T12:39:16;8.57;;;5.27;;
19519;SDS011;9904;52.246;20.898;2023-03-11T12:41:46;11.73;;;5.90;;
19519;SDS011;9904;52.246;20.898;2023-03-11T12:49:26;15.13;;;7.40;;
19519;SDS011;9904;52.246;20.898;2023-03-11T12:52:21;12.37;;;7.30;;
19519;SDS011;9904;52.246;20.898;2023-03-11T12:57:33;12.47;;;6.67;;
19519;SDS011;9904;52.246;20.898;2023-03-11T13:08:18;14.90;;;7.63;;
19519;SDS011;9904;52.246;20.898;2023-03-11T13:10:53;12.63;;;7.50;;
19519;SDS011;9904;52.246;20.898;2023-03-11T13:13:21;13.43;;;7.93;;
19519;SDS011;9904;52.246;20.898;2023-03-11T13:16:44;16.33;;;8.20;;
19519;SDS011;9904;52.246;20.898;2023-03-11T13:18:45;12.23;;;7.97;;
19519;SDS011;9904;52.246;20.898;2023-03-11T13:21:56;18.40;;;8.97;;
19519;SDS011;9904;52.246;20.898;2023-03-11T13:29:34;14.90;;;8.40;;
19519;SDS011;9904;52.246;20.898;2023-03-11T13:32:24;13.87;;;8.07;;
19519;SDS011;9904;52.246;20.898;2023-03-11T13:38:12;16.43;;;8.83;;
19519;SDS011;9904;52.246;20.898;2023-03-11T13:40:59;14.47;;;8.07;;
19519;SDS011;9904;52.246;20.898;2023-03-11T13:43:27;14.10;;;8.77;;
19519;SDS011;9904;52.246;20.898;2023-03-11T13:45:59;15.33;;;8.30;;
19519;SDS011;9904;52.246;20.898;2023-03-11T13:48:28;14.67;;;8.30;;
19519;SDS011;9904;52.246;20.898;2023-03-11T13:50:58;16.23;;;8.60;;
19519;SDS011;9904;52.246;20.898;2023-03-11T13:53:28;15.97;;;8.77;;
19519;SDS011;9904;52.246;20.898;2023-03-11T13:55:57;14.47;;;8.13;;
19519;SDS011;9904;52.246;20.898;2023-03-11T13:58:25;17.17;;;8.23;;
19519;SDS011;9904;52.246;20.898;2023-03-11T14:00:53;19.93;;;8.93;;
19519;SDS011;9904;52.246;20.898;2023-03-11T14:03:21;17.57;;;8.77;;
19519;SDS011;9904;52.246;20.898;2023-03-11T14:06:04;15.47;;;7.67;;
19519;SDS011;9904;52.246;20.898;2023-03-11T14:08:33;16.13;;;7.40;;
19519;SDS011;9904;52.246;20.898;2023-03-11T14:11:02;12.37;;;7.33;;
19519;SDS011;9904;52.246;20.898;2023-03-11T14:13:30;16.00;;;6.83;;
19519;SDS011;9904;52.246;20.898;2023-03-11T14:16:07;12.80;;;6.80;;
19519;SDS011;9904;52.246;20.898;2023-03-11T14:18:37;14.27;;;7.20;;
19519;SDS011;9904;52.246;20.898;2023-03-11T14:21:06;13.23;;;7.10;;
19519;SDS011;9904;52.246;20.898;2023-03-11T14:23:41;14.70;;;7.57;;
19519;SDS011;9904;52.246;20.898;2023-03-11T14:26:20;14.77;;;7.50;;
19519;SDS011;9904;52.246;20.898;2023-03-11T14:28:52;14.67;;;7.40;;
19519;SDS011;9904;52.246;20.898;2023-03-11T14:31:31;10.73;;;6.37;;
19519;SDS011;9904;52.246;20.898;2023-03-11T14:34:00;11.03;;;6.13;;
19519;SDS011;9904;52.246;20.898;2023-03-11T14:36:45;10.17;;;5.97;;
19519;SDS011;9904;52.246;20.898;2023-03-11T14:39:27;12.83;;;5.90;;
19519;SDS011;9904;52.246;20.898;2023-03-11T14:49:57;8.10;;;4.63;;
19519;SDS011;9904;52.246;20.898;2023-03-11T14:52:28;8.73;;;4.53;;
19519;SDS011;9904;52.246;20.898;2023-03-11T14:54:59;12.90;;;4.83;;
19519;SDS011;9904;52.246;20.898;2023-03-11T15:00:03;12.13;;;4.87;;
19519;SDS011;9904;52.246;20.898;2023-03-11T15:03:36;9.83;;;4.50;;
19519;SDS011;9904;52.246;20.898;2023-03-11T15:05:44;12.77;;;5.17;;
19519;SDS011;9904;52.246;20.898;2023-03-11T15:08:15;9.27;;;4.17;;
19519;SDS011;9904;52.246;20.898;2023-03-11T15:13:38;8.97;;;4.57;;
19519;SDS011;9904;52.246;20.898;2023-03-11T15:16:21;7.10;;;3.87;;
19519;SDS011;9904;52.246;20.898;2023-03-11T15:21:54;8.17;;;3.83;;
19519;SDS011;9904;52.246;20.898;2023-03-11T15:24:25;6.73;;;3.17;;
19519;SDS011;9904;52.246;20.898;2023-03-11T15:26:57;9.87;;;3.90;;
19519;SDS011;9904;52.246;20.898;2023-03-11T15:29:31;9.43;;;3.30;;
19519;SDS011;9904;52.246;20.898;2023-03-11T15:31:59;9.70;;;3.80;;
19519;SDS011;9904;52.246;20.898;2023-03-11T15:34:27;7.23;;;3.67;;
19519;SDS011;9904;52.246;20.898;2023-03-11T15:36:59;7.33;;;3.60;;
19519;SDS011;9904;52.246;20.898;2023-03-11T15:39:46;13.63;;;3.37;;
19519;SDS011;9904;52.246;20.898;2023-03-11T15:42:17;8.50;;;3.33;;
19519;SDS011;9904;52.246;20.898;2023-03-11T15:44:57;6.47;;;3.37;;
19519;SDS011;9904;52.246;20.898;2023-03-11T15:47:27;7.73;;;3.10;;
19519;SDS011;9904;52.246;20.898;2023-03-11T15:49:54;6.00;;;3.10;;
19519;SDS011;9904;52.246;20.898;2023-03-11T15:52:20;6.77;;;3.37;;
19519;SDS011;9904;52.246;20.898;2023-03-11T15:54:47;10.10;;;3.97;;
19519;SDS011;9904;52.246;20.898;2023-03-11T15:57:22;12.97;;;3.50;;
19519;SDS011;9904;52.246;20.898;2023-03-11T15:59:52;6.43;;;3.10;;
19519;SDS011;9904;52.246;20.898;2023-03-11T16:02:23;9.70;;;3.10;;
